Time;durP1;ratioP1;P1;durP2;ratioP2;P2;SDS_P1;SDS_P2;PMS_P1;PMS_P2;Temp;Humidity;BMP_temperature;BMP_pressure;BME280_temperature;BME280_humidity;BME280_pressure;Samples;Min_cycle;Max_cycle;Signal;HPM_P1;HPM_P2
2022/11/15 00:01:28;;;;;;;79.70;25.58;;;;;;;12.80;100.00;100669.59;4984147;28;20065;-61
2022/11/15 00:04:13;;;;;;;68.72;24.63;;;;;;;13.25;100.00;100655.25;4989811;28;20068;-61
2022/11/15 00:06:57;;;;;;;64.18;25.83;;;;;;;13.56;100.00;100661.66;4979975;28;20065;-61
2022/11/15 00:09:42;;;;;;;70.95;23.15;;;;;;;13.32;100.00;100663.28;4990328;28;20122;-60
2022/11/15 00:12:28;;;;;;;69.03;24.42;;;;;;;13.83;100.00;100664.09;4990701;28;20042;-61
2022/11/15 00:15:12;;;;;;;79.07;27.58;;;;;;;13.40;100.00;100660.31;4990680;28;20083;-61
2022/11/15 00:17:56;;;;;;;68.78;25.98;;;;;;;13.82;100.00;100665.13;4988998;28;20041;-61
2022/11/15 00:20:40;;;;;;;72.32;27.23;;;;;;;13.41;100.00;100661.94;4989046;28;20041;-61
2022/11/15 00:23:25;;;;;;;79.00;25.77;;;;;;;13.83;100.00;100658.72;4989444;28;20509;-61
2022/11/15 00:26:14;;;;;;;78.20;27.10;;;;;;;13.03;100.00;100660.97;4989165;28;20045;-61
2022/11/15 00:28:59;;;;;;;72.70;27.35;;;;;;;13.33;100.00;100664.91;4990395;28;20047;-61
2022/11/15 00:31:44;;;;;;;69.13;27.08;;;;;;;13.51;100.00;100656.13;4990479;28;20122;-62
2022/11/15 00:34:28;;;;;;;72.97;25.30;;;;;;;14.22;100.00;100655.03;4983265;28;20069;-61
2022/11/15 00:37:12;;;;;;;75.45;28.10;;;;;;;13.85;100.00;100659.34;4986935;28;20025;-62
2022/11/15 00:39:58;;;;;;;70.07;27.08;;;;;;;14.33;100.00;100662.38;4990138;28;20049;-61
2022/11/15 00:42:42;;;;;;;69.80;25.27;;;;;;;13.13;100.00;100659.66;4989445;28;20065;-62
2022/11/15 00:45:26;;;;;;;76.65;26.67;;;;;;;14.03;100.00;100642.41;4987896;28;20041;-61
2022/11/15 00:48:10;;;;;;;77.05;27.35;;;;;;;14.73;100.00;100643.03;4989629;28;20077;-60
2022/11/15 00:50:55;;;;;;;70.20;27.30;;;;;;;14.63;100.00;100640.84;4987066;28;20077;-61
2022/11/15 00:53:39;;;;;;;68.60;25.88;;;;;;;14.95;100.00;100647.91;4987301;28;20050;-61
2022/11/15 00:56:23;;;;;;;80.88;27.17;;;;;;;14.28;100.00;100640.66;4990788;28;20065;-61
2022/11/15 00:59:07;;;;;;;73.55;26.90;;;;;;;14.01;100.00;100640.97;4993074;28;20069;-61
2022/11/15 01:01:51;;;;;;;69.45;26.48;;;;;;;14.33;100.00;100646.22;4997178;28;20053;-61
2022/11/15 01:04:36;;;;;;;78.50;26.63;;;;;;;14.75;100.00;100643.63;4991159;28;20042;-60
2022/11/15 01:07:20;;;;;;;76.20;26.58;;;;;;;15.20;100.00;100630.75;4988685;28;20053;-61
2022/11/15 01:10:04;;;;;;;66.40;24.73;;;;;;;15.04;100.00;100637.63;4993711;28;20055;-61
2022/11/15 01:12:49;;;;;;;78.32;28.08;;;;;;;14.90;100.00;100628.94;4989284;28;20046;-60
2022/11/15 01:15:34;;;;;;;69.95;27.48;;;;;;;14.50;100.00;100619.50;4987612;28;20103;-61
2022/11/15 01:18:18;;;;;;;81.93;27.08;;;;;;;19.93;100.00;100624.09;4991596;28;20107;-61
2022/11/15 01:21:07;;;;;;;65.97;26.58;;;;;;;15.01;100.00;100617.41;4990834;28;20050;-61
2022/11/15 01:23:54;;;;;;;60.72;25.83;;;;;;;14.13;100.00;100620.38;4992594;28;20264;-61
2022/11/15 01:26:39;;;;;;;64.75;24.02;;;;;;;13.90;100.00;100608.41;4997532;28;20054;-61
2022/11/15 01:29:24;;;;;;;62.80;25.80;;;;;;;14.31;100.00;100603.41;4992900;28;20050;-61
2022/11/15 01:32:09;;;;;;;64.75;26.55;;;;;;;14.01;100.00;100614.09;4992157;28;20065;-62
2022/11/15 01:34:53;;;;;;;60.65;24.38;;;;;;;13.71;100.00;100594.13;4990588;28;20046;-62
2022/11/15 01:37:37;;;;;;;58.42;25.65;;;;;;;13.97;100.00;100607.53;4991689;28;20068;-61
2022/11/15 01:40:22;;;;;;;63.38;25.38;;;;;;;13.73;100.00;100593.91;4991608;28;20034;-60
2022/11/15 01:43:23;;;;;;;61.80;24.92;;;;;;;14.26;100.00;100597.88;4991050;28;20054;-62
2022/11/15 01:46:28;;;;;;;65.53;23.20;;;;;;;14.50;100.00;100598.00;4989144;28;20073;-61
2022/11/15 01:49:17;;;;;;;51.05;21.92;;;;;;;14.60;100.00;100592.88;4990275;28;20049;-61
2022/11/15 01:52:05;;;;;;;61.63;23.58;;;;;;;14.86;100.00;100595.44;5002093;28;20062;-61
2022/11/15 01:54:56;;;;;;;54.42;23.95;;;;;;;15.10;100.00;100603.59;4991858;28;20108;-61
2022/11/15 01:57:42;;;;;;;47.70;22.35;;;;;;;14.70;100.00;100592.31;4992694;28;20119;-61
2022/11/15 02:00:28;;;;;;;50.38;22.05;;;;;;;14.38;100.00;100600.63;5001915;28;20072;-61
2022/11/15 02:03:13;;;;;;;55.03;22.73;;;;;;;14.75;100.00;100595.16;4991622;28;20069;-62
2022/11/15 02:05:58;;;;;;;52.65;22.13;;;;;;;14.43;100.00;100594.56;4988835;28;20068;-61
2022/11/15 02:08:44;;;;;;;50.10;24.33;;;;;;;14.59;100.00;100593.13;4988332;28;20089;-60
2022/11/15 02:11:30;;;;;;;50.42;23.25;;;;;;;14.73;100.00;100583.00;4992353;28;20095;-61
2022/11/15 02:14:19;;;;;;;55.13;24.38;;;;;;;14.87;100.00;100580.94;4988286;28;20050;-62
2022/11/15 02:17:25;;;;;;;61.85;24.20;;;;;;;15.10;100.00;100568.56;4988594;28;20049;-61
2022/11/15 02:20:29;;;;;;;47.30;22.80;;;;;;;15.13;100.00;100568.09;4995003;28;20042;-61
2022/11/15 02:23:35;;;;;;;54.22;22.73;;;;;;;15.15;100.00;100566.84;4988798;28;20046;-61
2022/11/15 02:26:30;;;;;;;48.53;22.85;;;;;;;14.67;100.00;100575.81;4989219;28;20061;-62
2022/11/15 02:29:55;;;;;;;42.53;22.08;;;;;;;15.17;100.00;100567.41;4987687;28;20046;-62
2022/11/15 02:32:47;;;;;;;51.60;23.90;;;;;;;15.09;100.00;100556.16;4989375;28;20049;-61
2022/11/15 02:35:46;;;;;;;56.65;22.20;;;;;;;15.37;100.00;100562.72;4990099;28;20075;-61
2022/11/15 02:38:36;;;;;;;49.55;21.83;;;;;;;15.56;100.00;100547.25;4990321;28;20045;-60
2022/11/15 02:41:34;;;;;;;56.42;23.77;;;;;;;15.63;100.00;100537.19;4991243;28;20050;-61
2022/11/15 02:44:26;;;;;;;53.67;24.17;;;;;;;15.68;100.00;100536.44;4990882;28;20046;-61
2022/11/15 02:47:16;;;;;;;50.50;22.98;;;;;;;15.66;100.00;100525.09;4990826;28;20126;-61
2022/11/15 02:50:07;;;;;;;58.65;24.33;;;;;;;15.41;100.00;100520.78;5019469;28;20068;-61
2022/11/15 02:52:53;;;;;;;48.95;22.48;;;;;;;15.09;100.00;100532.72;4991187;28;20048;-62
2022/11/15 02:55:43;;;;;;;46.95;20.73;;;;;;;15.44;100.00;100525.69;4990245;28;20065;-61
2022/11/15 02:58:41;;;;;;;55.33;24.45;;;;;;;15.55;100.00;100529.44;4989823;28;20106;-61
2022/11/15 03:01:40;;;;;;;48.72;23.45;;;;;;;15.42;100.00;100519.72;5000968;28;20065;-61
2022/11/15 03:04:44;;;;;;;50.05;22.15;;;;;;;15.19;100.00;100524.06;4990434;28;20065;-61
2022/11/15 03:08:04;;;;;;;47.00;22.63;;;;;;;15.66;100.00;100520.53;4991630;28;20102;-61
2022/11/15 03:11:09;;;;;;;48.03;21.97;;;;;;;15.58;100.00;100516.31;4989751;28;20307;-61
2022/11/15 03:14:25;;;;;;;49.90;25.43;;;;;;;14.69;100.00;100523.41;4991737;28;20315;-61
2022/11/15 03:17:22;;;;;;;51.20;23.70;;;;;;;15.59;100.00;100519.84;4991485;28;20271;-62
2022/11/15 03:20:10;;;;;;;49.67;23.20;;;;;;;15.87;100.00;100524.47;4990066;28;20256;-61
2022/11/15 03:22:59;;;;;;;51.40;24.63;;;;;;;16.07;100.00;100517.88;4990485;28;20046;-62
2022/11/15 03:25:48;;;;;;;57.10;24.27;;;;;;;15.75;100.00;100539.84;4988404;28;20054;-62
2022/11/15 03:28:36;;;;;;;55.50;25.70;;;;;;;15.82;100.00;100537.03;4991275;28;20264;-62
2022/11/15 03:34:46;;;;;;;50.77;24.17;;;;;;;15.72;100.00;100533.06;4987681;28;20271;-61
2022/11/15 03:37:37;;;;;;;64.00;23.87;;;;;;;15.86;100.00;100528.22;4991287;28;20101;-61
2022/11/15 03:40:29;;;;;;;56.87;25.70;;;;;;;16.04;100.00;100529.13;4989260;28;20299;-61
2022/11/15 03:43:33;;;;;;;53.60;25.20;;;;;;;15.70;100.00;100528.97;4990279;28;20291;-61
2022/11/15 03:46:28;;;;;;;43.77;23.87;;;;;;;15.89;100.00;100522.38;4989966;28;20302;-61
2022/11/15 03:49:17;;;;;;;49.80;23.03;;;;;;;16.18;100.00;100535.91;4989960;28;20315;-62
2022/11/15 03:52:04;;;;;;;55.80;25.17;;;;;;;15.94;100.00;100537.03;4991319;28;20294;-62
2022/11/15 03:54:51;;;;;;;50.37;24.60;;;;;;;15.91;100.00;100532.94;4987792;28;20306;-62
2022/11/15 03:57:35;;;;;;;53.67;23.42;;;;;;;16.07;100.00;100534.06;4988744;28;20284;-63
2022/11/15 04:00:20;;;;;;;59.30;25.00;;;;;;;15.92;100.00;100542.66;4989961;28;20045;-61
2022/11/15 04:03:05;;;;;;;50.33;25.73;;;;;;;15.86;100.00;100533.59;4989526;28;20282;-61
2022/11/15 04:05:50;;;;;;;44.77;22.43;;;;;;;16.43;100.00;100533.91;4990236;28;20279;-61
2022/11/15 04:08:35;;;;;;;56.80;25.27;;;;;;;15.71;100.00;100520.63;4989315;28;20284;-63
2022/11/15 04:11:19;;;;;;;51.23;25.83;;;;;;;15.87;100.00;100521.75;4989086;28;20276;-61
2022/11/15 04:14:03;;;;;;;51.37;24.33;;;;;;;16.04;100.00;100508.41;4990275;28;20291;-61
2022/11/15 04:16:47;;;;;;;62.17;27.90;;;;;;;16.15;100.00;100513.97;4999677;28;20327;-62
2022/11/15 04:25:38;;;;;;;54.13;24.53;;;;;;;16.12;100.00;100515.25;4988862;28;20268;-62
2022/11/15 04:28:22;;;;;;;52.33;25.10;;;;;;;16.41;100.00;100509.03;4990736;28;20848;-63
2022/11/15 04:31:07;;;;;;;51.90;25.40;;;;;;;16.04;100.00;100510.25;4988859;28;20276;-61
2022/11/15 04:33:53;;;;;;;53.33;24.87;;;;;;;16.05;100.00;100520.00;4987605;28;20275;-62
2022/11/15 04:39:42;;;;;;;57.73;25.17;;;;;;;15.74;100.00;100520.16;4987734;28;20268;-62
2022/11/15 04:42:26;;;;;;;54.80;24.47;;;;;;;16.07;100.00;100520.56;4992840;28;20511;-61
2022/11/15 04:45:10;;;;;;;60.50;25.30;;;;;;;15.48;100.00;100519.59;4990882;28;20291;-62
2022/11/15 04:47:55;;;;;;;54.93;24.30;;;;;;;15.89;100.00;100522.38;4990892;28;20275;-61
2022/11/15 04:50:40;;;;;;;49.07;24.07;;;;;;;15.75;100.00;100519.09;4991899;28;20296;-61
2022/11/15 04:53:25;;;;;;;63.10;25.33;;;;;;;15.99;100.00;100516.38;4992001;28;20317;-61
2022/11/15 04:56:10;;;;;;;50.83;23.27;;;;;;;15.98;100.00;100514.72;4993795;28;20288;-62
2022/11/15 04:58:55;;;;;;;62.63;25.33;;;;;;;15.89;100.00;100516.97;4992582;28;20252;-63
2022/11/15 05:01:39;;;;;;;54.10;24.93;;;;;;;16.09;100.00;100509.53;4993696;28;20268;-61
2022/11/15 05:04:23;;;;;;;59.00;27.53;;;;;;;15.96;100.00;100514.16;4992797;28;20375;-63
2022/11/15 05:07:07;;;;;;;53.30;24.63;;;;;;;16.24;100.00;100520.59;4991838;28;20256;-61
2022/11/15 05:09:51;;;;;;;49.97;24.57;;;;;;;16.11;100.00;100524.41;4992151;28;20324;-61
2022/11/15 05:12:36;;;;;;;55.30;26.83;;;;;;;16.12;100.00;100520.66;4993476;28;20275;-61
2022/11/15 05:15:20;;;;;;;48.33;24.73;;;;;;;16.20;100.00;100517.59;4993097;28;20970;-61
2022/11/15 05:18:06;;;;;;;56.53;26.77;;;;;;;16.42;100.00;100525.00;4993212;28;20267;-61
2022/11/15 05:20:50;;;;;;;56.10;26.77;;;;;;;15.89;100.00;100522.38;4993555;28;20272;-61
2022/11/15 05:23:34;;;;;;;59.27;26.80;;;;;;;15.91;100.00;100527.53;4991167;28;20268;-61
2022/11/15 05:26:19;;;;;;;58.27;28.73;;;;;;;16.09;100.00;100529.22;4992592;28;20344;-61
2022/11/15 05:29:03;;;;;;;62.03;26.20;;;;;;;15.65;100.00;100528.84;4990764;28;20288;-61
2022/11/15 05:31:49;;;;;;;55.90;26.23;;;;;;;16.17;100.00;100522.63;4991565;28;20283;-62
2022/11/15 05:34:34;;;;;;;59.30;27.50;;;;;;;16.38;100.00;100521.16;4993297;28;20259;-61
2022/11/15 05:37:18;;;;;;;60.03;27.40;;;;;;;16.51;100.00;100524.59;4998988;28;20279;-62
2022/11/15 05:40:03;;;;;;;69.47;28.53;;;;;;;16.67;100.00;100531.09;4992059;28;20268;-61
2022/11/15 05:42:48;;;;;;;59.57;26.83;;;;;;;16.67;100.00;100521.13;4991513;28;20348;-61
2022/11/15 05:45:34;;;;;;;61.03;27.57;;;;;;;16.88;100.00;100522.25;5009254;28;20552;-62
2022/11/15 05:48:19;;;;;;;58.45;27.15;;;;;;;17.20;100.00;100524.41;4991583;28;20271;-61
2022/11/15 05:51:04;;;;;;;58.90;27.50;;;;;;;16.90;100.00;100522.84;4992268;28;20130;-61
2022/11/15 05:53:51;;;;;;;64.17;28.40;;;;;;;17.16;100.00;100522.44;5002807;28;20315;-61
2022/11/15 05:56:36;;;;;;;63.10;27.27;;;;;;;16.79;100.00;100534.53;4992810;28;20263;-61
2022/11/15 05:59:20;;;;;;;59.30;26.73;;;;;;;16.95;100.00;100529.38;5001049;28;20049;-65
2022/11/15 06:02:04;;;;;;;60.17;26.40;;;;;;;16.62;100.00;100534.53;4990385;28;20264;-60
2022/11/15 06:04:48;;;;;;;62.03;29.50;;;;;;;20.47;100.00;100540.69;4990538;28;20276;-61
2022/11/15 06:07:32;;;;;;;68.87;29.20;;;;;;;21.43;100.00;100540.13;5016886;28;20272;-61
2022/11/15 06:10:17;;;;;;;68.37;29.17;;;;;;;17.17;100.00;100535.69;4990685;28;20299;-62
2022/11/15 06:13:04;;;;;;;67.10;29.37;;;;;;;16.62;100.00;100535.34;4987941;28;20832;-62
2022/11/15 06:15:48;;;;;;;;;;;;;;;17.01;100.00;100528.44;4988956;28;20299;-62
2022/11/15 06:18:34;;;;;;;61.27;26.27;;;;;;;16.34;100.00;100533.47;4985660;28;19926;-62
2022/11/15 06:21:18;;;;;;;57.53;25.97;;;;;;;15.76;100.00;100534.22;4978915;28;20292;-61
2022/11/15 06:24:03;;;;;;;67.90;28.20;;;;;;;16.05;100.00;100536.16;4992555;28;20930;-61
2022/11/15 06:26:47;;;;;;;59.50;26.63;;;;;;;16.13;100.00;100533.09;4989809;28;20288;-61
2022/11/15 06:29:31;;;;;;;63.73;27.17;;;;;;;16.23;100.00;100534.34;4990990;28;20351;-62
2022/11/15 06:32:15;;;;;;;68.03;28.97;;;;;;;16.29;100.00;100539.63;4994256;28;20361;-61
2022/11/15 06:34:59;;;;;;;60.67;27.03;;;;;;;16.28;100.00;100540.69;4986881;28;20345;-62
2022/11/15 06:37:43;;;;;;;64.93;27.13;;;;;;;16.18;100.00;100546.69;4990052;28;20295;-62
2022/11/15 06:40:27;;;;;;;61.90;26.93;;;;;;;16.07;100.00;100555.63;4982201;28;20413;-62
2022/11/15 06:43:14;;;;;;;60.67;25.80;;;;;;;16.06;100.00;100554.00;4986452;28;20318;-62
2022/11/15 06:45:59;;;;;;;68.43;28.27;;;;;;;16.34;100.00;100552.38;4986835;28;20311;-61
2022/11/15 06:48:43;;;;;;;74.00;29.33;;;;;;;16.28;100.00;100556.88;4989580;28;20283;-63
2022/11/15 06:51:28;;;;;;;56.53;26.17;;;;;;;16.20;100.00;100557.22;4987710;28;20268;-62
2022/11/15 06:54:13;;;;;;;60.63;25.53;;;;;;;16.19;100.00;100558.28;4986539;28;20315;-62
2022/11/15 06:56:57;;;;;;;63.17;26.57;;;;;;;16.65;100.00;100561.03;4989396;28;20288;-63
2022/11/15 06:59:41;;;;;;;64.07;27.07;;;;;;;15.70;100.00;100561.31;4985733;28;20374;-62
2022/11/15 07:02:25;;;;;;;60.70;25.23;;;;;;;16.05;100.00;100566.66;4987224;28;20252;-62
2022/11/15 07:05:10;;;;;;;61.20;26.73;;;;;;;16.55;100.00;100569.78;4989638;28;20295;-62
2022/11/15 07:07:57;;;;;;;60.60;26.37;;;;;;;16.17;100.00;100582.81;5011450;28;20270;-62
2022/11/15 07:10:41;;;;;;;60.80;25.47;;;;;;;16.30;100.00;100570.09;4989152;28;20287;-60
2022/11/15 07:13:27;;;;;;;60.50;26.20;;;;;;;16.40;100.00;100581.09;4989410;28;20305;-61
2022/11/15 07:16:11;;;;;;;59.23;27.00;;;;;;;16.04;100.00;100583.09;4987357;28;20276;-61
2022/11/15 07:18:56;;;;;;;64.10;25.87;;;;;;;16.24;100.00;100587.25;4990606;28;20296;-63
2022/11/15 07:21:41;;;;;;;54.60;24.70;;;;;;;16.09;100.00;100588.56;4989295;28;20315;-63
2022/11/15 07:24:25;;;;;;;67.93;28.57;;;;;;;16.49;100.00;100584.22;4987502;28;20286;-62
2022/11/15 07:27:09;;;;;;;56.00;25.70;;;;;;;16.86;100.00;100593.81;4986599;28;20395;-61
2022/11/15 07:29:53;;;;;;;57.47;25.17;;;;;;;16.70;100.00;100590.00;4983507;28;20287;-62
2022/11/15 07:32:37;;;;;;;64.07;25.30;;;;;;;16.51;100.00;100592.91;4990193;28;20295;-62
2022/11/15 07:35:22;;;;;;;53.63;24.30;;;;;;;16.54;100.00;100587.03;4988659;28;20275;-61
2022/11/15 07:38:06;;;;;;;57.00;24.70;;;;;;;16.51;100.00;100579.41;5003442;28;20279;-62
2022/11/15 07:41:00;;;;;;;59.37;24.67;;;;;;;16.76;100.00;100579.03;4989321;28;20332;-62
2022/11/15 07:43:44;;;;;;;55.97;25.37;;;;;;;16.71;100.00;100570.03;4990172;28;20291;-62
2022/11/15 07:46:30;;;;;;;51.13;22.70;;;;;;;16.75;100.00;100572.00;4986305;28;20272;-62
2022/11/15 07:49:14;;;;;;;52.13;22.87;;;;;;;16.72;100.00;100572.50;4988853;28;20320;-62
2022/11/15 07:51:59;;;;;;;49.70;23.23;;;;;;;16.66;100.00;100568.06;4986155;28;20340;-61
2022/11/15 07:54:44;;;;;;;50.10;21.33;;;;;;;16.67;100.00;100567.00;4987160;28;20295;-61
2022/11/15 07:57:29;;;;;;;46.03;23.17;;;;;;;16.74;100.00;100567.66;4985395;28;20275;-62
2022/11/15 08:00:14;;;;;;;50.90;21.73;;;;;;;16.66;100.00;100567.25;4997772;28;20281;-61
2022/11/15 08:03:10;;;;;;;45.93;21.37;;;;;;;16.91;100.00;100561.47;4989344;28;20256;-61
2022/11/15 08:05:56;;;;;;;50.47;22.40;;;;;;;16.85;100.00;100570.56;4989375;28;20314;-62
2022/11/15 08:08:40;;;;;;;48.53;22.63;;;;;;;16.94;100.00;100565.56;4987974;28;20272;-62
2022/11/15 08:11:24;;;;;;;46.47;22.07;;;;;;;16.80;100.00;100570.44;4988118;28;20259;-62
2022/11/15 08:14:08;;;;;;;53.43;23.43;;;;;;;16.50;100.00;100567.00;4986265;28;20328;-60
2022/11/15 08:16:54;;;;;;;51.63;21.93;;;;;;;16.45;100.00;100573.09;4989138;28;20272;-61
2022/11/15 08:19:38;;;;;;;45.30;21.77;;;;;;;16.74;100.00;100573.06;4990610;28;20260;-62
2022/11/15 08:22:22;;;;;;;46.90;21.30;;;;;;;16.67;100.00;100566.19;4986647;28;20264;-61
2022/11/15 08:25:07;;;;;;;39.20;20.73;;;;;;;16.30;100.00;100564.69;4996652;28;20358;-60
2022/11/15 08:27:56;;;;;;;40.67;19.23;;;;;;;16.29;100.00;100568.47;4992515;28;20764;-60
2022/11/15 08:30:45;;;;;;;51.47;22.03;;;;;;;16.26;100.00;100572.47;4990580;28;20296;-63
2022/11/15 08:33:30;;;;;;;42.27;20.27;;;;;;;16.06;100.00;100562.09;4991427;28;20268;-61
2022/11/15 08:36:16;;;;;;;44.50;21.00;;;;;;;16.00;100.00;100568.44;4991374;28;20357;-61
2022/11/15 08:39:01;;;;;;;40.43;20.40;;;;;;;16.15;100.00;100568.75;4984845;28;20345;-62
2022/11/15 08:41:47;;;;;;;37.33;18.37;;;;;;;16.05;100.00;100563.13;4988361;28;20272;-61
2022/11/15 08:44:32;;;;;;;42.87;18.03;;;;;;;16.19;100.00;100558.28;4990688;28;20326;-62
2022/11/15 08:47:16;;;;;;;38.27;20.33;;;;;;;16.13;100.00;100554.66;4991178;28;20303;-61
2022/11/15 08:50:00;;;;;;;41.60;20.10;;;;;;;16.41;100.00;100550.34;4984640;28;20327;-61
2022/11/15 08:52:44;;;;;;;35.17;19.20;;;;;;;16.45;100.00;100556.91;4994587;28;20268;-61
2022/11/15 08:55:29;;;;;;;43.00;18.33;;;;;;;16.52;100.00;100547.84;4979036;28;20359;-62
2022/11/15 08:58:13;;;;;;;30.53;16.70;;;;;;;16.48;100.00;100550.19;4989959;28;20273;-61
2022/11/15 09:00:58;;;;;;;34.77;17.03;;;;;;;16.20;100.00;100544.56;4994017;28;20287;-61
2022/11/15 09:03:43;;;;;;;39.03;17.37;;;;;;;16.53;100.00;100542.22;4991061;28;20287;-60
2022/11/15 09:06:28;;;;;;;38.17;15.80;;;;;;;16.71;100.00;100546.56;4988373;28;20273;-60
2022/11/15 09:09:12;;;;;;;28.00;13.47;;;;;;;18.00;100.00;100547.63;4974135;28;20301;-60
2022/11/15 09:11:56;;;;;;;28.67;14.10;;;;;;;19.14;100.00;100551.47;4993845;28;20279;-60
2022/11/15 09:14:41;;;;;;;24.50;10.60;;;;;;;18.33;100.00;100542.34;4998385;28;20269;-61
2022/11/15 09:17:26;;;;;;;27.53;10.87;;;;;;;19.08;100.00;100555.22;4988425;28;20283;-62
2022/11/15 09:20:10;;;;;;;22.53;9.10;;;;;;;18.94;100.00;100541.28;4992094;28;20361;-61
2022/11/15 09:22:55;;;;;;;21.33;8.27;;;;;;;18.01;100.00;100540.34;4995214;28;20272;-61
2022/11/15 09:25:39;;;;;;;14.40;7.90;;;;;;;18.00;100.00;100536.00;4986180;28;20356;-61
2022/11/15 09:28:23;;;;;;;12.53;6.83;;;;;;;17.96;100.00;100529.44;4982779;28;20269;-61
2022/11/15 09:31:08;;;;;;;15.77;7.30;;;;;;;18.83;100.00;100539.53;4986826;28;20378;-61
2022/11/15 09:33:52;;;;;;;14.43;7.03;;;;;;;19.18;100.00;100525.47;4991832;28;20332;-62
2022/11/15 09:36:36;;;;;;;10.87;5.53;;;;;;;19.34;100.00;100520.16;4985635;28;20275;-61
2022/11/15 09:39:21;;;;;;;12.63;6.80;;;;;;;19.99;100.00;100527.25;4989322;28;20311;-61
2022/11/15 09:42:25;;;;;;;18.70;6.20;;;;;;;20.27;100.00;100531.41;4991481;28;20072;-61
2022/11/15 09:45:23;;;;;;;11.87;6.43;;;;;;;19.85;100.00;100516.06;4992987;28;20042;-61
2022/11/15 09:48:14;;;;;;;10.73;4.77;;;;;;;19.47;100.00;100525.09;4991162;28;20061;-61
2022/11/15 09:50:59;;;;;;;10.63;4.43;;;;;;;20.86;100.00;100533.94;5012177;28;20035;-61
2022/11/15 09:53:39;;;;;;;10.50;4.35;;;;;;;19.65;100.00;100533.88;5012958;28;20054;-60
2022/11/15 09:56:16;;;;;;;11.73;4.70;;;;;;;19.42;100.00;100516.13;4989371;28;20038;-61
2022/11/15 09:59:08;;;;;;;9.83;4.60;;;;;;;18.83;100.00;100516.00;4988308;28;20094;-62
2022/11/15 10:01:53;;;;;;;8.43;5.10;;;;;;;18.42;100.00;100521.84;4991158;28;20035;-62
2022/11/15 10:04:22;;;;;;;8.60;4.70;;;;;;;17.70;100.00;100526.41;4987850;28;20106;-60
2022/11/15 10:07:13;;;;;;;8.70;4.67;;;;;;;17.69;100.00;100504.00;5015117;28;20285;-61
2022/11/15 10:09:49;;;;;;;10.73;4.77;;;;;;;17.85;100.00;100510.41;4987024;28;20289;-61
2022/11/15 10:12:17;;;;;;;10.83;5.03;;;;;;;17.50;100.00;100506.16;4988665;28;20268;-61
2022/11/15 10:14:43;;;;;;;8.23;4.57;;;;;;;17.84;100.00;100511.47;4991018;28;20272;-63
2022/11/15 10:17:14;;;;;;;7.63;4.65;;;;;;;18.13;100.00;100521.28;4988871;28;20269;-61
2022/11/15 10:20:15;;;;;;;7.07;4.17;;;;;;;18.05;100.00;100519.84;4991151;28;20039;-62
2022/11/15 10:22:47;;;;;;;10.97;4.63;;;;;;;18.49;100.00;100508.94;4979228;28;20281;-60
2022/11/15 10:25:19;;;;;;;5.80;3.97;;;;;;;17.61;100.00;100494.44;4990055;28;20276;-60
2022/11/15 10:27:52;;;;;;;6.67;3.70;;;;;;;17.85;100.00;100480.66;4988938;28;20284;-60
2022/11/15 10:30:19;;;;;;;6.67;4.10;;;;;;;18.05;100.00;100493.59;4987080;28;20320;-61
2022/11/15 10:32:46;;;;;;;6.97;4.18;;;;;;;17.76;100.00;100487.56;4999422;28;20289;-61
2022/11/15 10:35:26;;;;;;;7.40;3.77;;;;;;;17.46;100.00;100486.94;4986427;28;20043;-61
2022/11/15 10:37:52;;;;;;;10.23;3.97;;;;;;;17.79;100.00;100495.19;4984813;28;20287;-61
2022/11/15 10:40:21;;;;;;;10.90;3.92;;;;;;;18.35;100.00;100510.41;4989682;28;20269;-60
2022/11/15 10:42:48;;;;;;;6.83;4.07;;;;;;;18.66;100.00;100494.44;4988721;28;20042;-61
2022/11/15 10:45:26;;;;;;;7.90;3.83;;;;;;;18.16;100.00;100472.06;4988389;28;20307;-62
2022/11/15 10:47:51;;;;;;;7.63;3.00;;;;;;;19.18;100.00;100460.44;4990176;28;20035;-61
2022/11/15 10:50:47;;;;;;;7.35;2.83;;;;;;;19.72;100.00;100463.09;4987127;28;20283;-62
2022/11/15 10:53:46;;;;;;;7.20;2.70;;;;;;;19.61;100.00;100454.13;4982051;28;20044;-61
2022/11/15 10:56:17;;;;;;;5.60;3.10;;;;;;;19.95;100.00;100458.31;4972260;28;20051;-60
2022/11/15 10:58:50;;;;;;;6.10;3.27;;;;;;;20.51;100.00;100465.72;4951709;29;20032;-61
2022/11/15 11:01:18;;;;;;;11.67;2.53;;;;;;;21.14;100.00;100458.34;4949743;29;20028;-60
2022/11/15 11:04:00;;;;;;;7.27;2.60;;;;;;;21.46;100.00;100451.72;4953703;28;20051;-63
2022/11/15 11:06:27;;;;;;;3.93;2.43;;;;;;;20.91;100.00;100450.50;4948025;29;20099;-61
2022/11/15 11:09:02;;;;;;;5.05;1.92;;;;;;;21.90;100.00;100444.72;4951575;29;20035;-61
2022/11/15 11:11:49;;;;;;;5.10;1.73;;;;;;;22.87;91.38;100450.50;4948362;29;20039;-62
2022/11/15 11:14:30;;;;;;;4.57;1.30;;;;;;;23.09;84.69;100457.38;4949574;29;20032;-62
2022/11/15 11:17:15;;;;;;;6.77;1.77;;;;;;;22.52;86.53;100451.66;4947579;28;20035;-61
2022/11/15 11:20:02;;;;;;;4.20;1.67;;;;;;;22.88;84.14;100456.78;4949422;28;20047;-61
2022/11/15 11:23:07;;;;;;;4.60;1.30;;;;;;;22.61;81.94;100445.31;4951640;29;20040;-62
2022/11/15 11:25:32;;;;;;;6.50;1.47;;;;;;;22.94;75.36;100466.53;4950576;28;20043;-61
2022/11/15 11:28:19;;;;;;;4.70;1.10;;;;;;;22.30;77.28;100439.25;4952261;29;20110;-62
2022/11/15 11:30:45;;;;;;;;;;;;;;;22.39;77.03;100453.91;4949453;29;20301;-61
2022/11/15 11:33:20;;;;;;;4.03;1.30;;;;;;;24.08;72.41;100437.06;4952211;29;19915;-63
2022/11/15 11:36:08;;;;;;;2.97;0.97;;;;;;;23.67;69.05;100424.78;4940459;28;20059;-61
2022/11/15 11:38:49;;;;;;;3.43;1.17;;;;;;;23.71;68.16;100425.81;4946262;28;20095;-63
2022/11/15 11:41:31;;;;;;;8.80;1.47;;;;;;;23.78;68.33;100423.56;4944720;28;20061;-62
2022/11/15 11:44:19;;;;;;;6.17;1.67;;;;;;;22.34;75.03;100426.69;4949101;29;20040;-63
2022/11/15 11:47:20;;;;;;;5.93;1.37;;;;;;;21.22;79.67;100397.13;4938955;29;20036;-61
2022/11/15 11:49:49;;;;;;;7.33;1.33;;;;;;;21.55;80.55;100387.47;4953780;28;20159;-62
2022/11/15 11:52:43;;;;;;;2.90;1.30;;;;;;;21.53;80.02;100392.38;4943629;29;20056;-61
2022/11/15 11:55:17;;;;;;;5.13;1.20;;;;;;;21.22;79.89;100378.94;4949941;29;20040;-60
2022/11/15 11:57:54;;;;;;;8.07;1.10;;;;;;;21.10;80.57;100383.84;4952977;28;20040;-61
2022/11/15 12:00:23;;;;;;;7.97;1.93;;;;;;;21.28;80.28;100383.25;4947601;29;20094;-61
2022/11/15 12:03:13;;;;;;;3.73;1.03;;;;;;;21.79;77.02;100381.38;4948047;28;20067;-61
2022/11/15 12:05:56;;;;;;;8.10;1.20;;;;;;;21.54;77.43;100374.13;4950796;29;20040;-62
2022/11/15 12:08:43;;;;;;;7.07;1.60;;;;;;;21.38;79.01;100373.41;4949073;29;20040;-61
2022/11/15 12:11:18;;;;;;;8.07;1.30;;;;;;;21.67;77.31;100365.38;4948947;29;20095;-61
2022/11/15 12:13:47;;;;;;;7.30;1.40;;;;;;;22.07;76.58;100365.38;4947649;29;20050;-61
2022/11/15 12:16:39;;;;;;;5.50;1.37;;;;;;;22.52;74.08;100357.13;4949422;29;20044;-62
2022/11/15 12:19:07;;;;;;;5.80;1.10;;;;;;;22.45;73.21;100360.13;4952465;29;20066;-62
2022/11/15 12:21:43;;;;;;;6.67;1.30;;;;;;;22.90;72.54;100350.97;4947577;28;20032;-62
2022/11/15 12:24:25;;;;;;;5.53;1.38;;;;;;;22.66;73.23;100340.06;4951053;29;20104;-62
2022/11/15 12:27:18;;;;;;;6.40;1.80;;;;;;;22.34;73.52;100345.81;4944204;29;20044;-61
2022/11/15 12:29:49;;;;;;;6.63;1.40;;;;;;;22.51;71.57;100335.59;4948297;29;20036;-62
2022/11/15 12:32:37;;;;;;;7.37;1.43;;;;;;;22.68;70.94;100327.78;4949008;29;20043;-61
2022/11/15 12:35:20;;;;;;;3.53;1.40;;;;;;;22.53;69.81;100319.78;4943864;28;20115;-62
2022/11/15 12:37:51;;;;;;;6.27;1.50;;;;;;;22.33;69.91;100321.56;4949220;29;20039;-61
2022/11/15 12:40:29;;;;;;;6.90;1.30;;;;;;;22.40;72.86;100308.44;4950528;29;20050;-61